sensor_id;sensor_type;location;lat;lon;timestamp;P1;durP1;ratioP1;P2;durP2;ratioP2
15476;SDS011;7840;42.702;23.296;2022-12-07T00:02:28;26.57;;;17.67;;
15476;SDS011;7840;42.702;23.296;2022-12-07T00:04:57;27.37;;;18.87;;
15476;SDS011;7840;42.702;23.296;2022-12-07T00:07:25;24.40;;;17.57;;
15476;SDS011;7840;42.702;23.296;2022-12-07T00:09:53;27.10;;;19.10;;
15476;SDS011;7840;42.702;23.296;2022-12-07T00:12:23;25.57;;;17.60;;
15476;SDS011;7840;42.702;23.296;2022-12-07T00:14:50;28.37;;;19.73;;
15476;SDS011;7840;42.702;23.296;2022-12-07T00:17:19;27.47;;;19.70;;
15476;SDS011;7840;42.702;23.296;2022-12-07T00:19:46;34.07;;;20.03;;
15476;SDS011;7840;42.702;23.296;2022-12-07T00:22:15;28.07;;;19.97;;
15476;SDS011;7840;42.702;23.296;2022-12-07T00:24:51;31.73;;;20.57;;
15476;SDS011;7840;42.702;23.296;2022-12-07T00:41:03;29.47;;;20.93;;
15476;SDS011;7840;42.702;23.296;2022-12-07T00:43:32;32.47;;;21.00;;
15476;SDS011;7840;42.702;23.296;2022-12-07T00:46:00;27.23;;;19.23;;
15476;SDS011;7840;42.702;23.296;2022-12-07T00:48:27;30.73;;;19.90;;
15476;SDS011;7840;42.702;23.296;2022-12-07T00:51:09;30.07;;;20.57;;
15476;SDS011;7840;42.702;23.296;2022-12-07T00:53:38;29.13;;;19.80;;
15476;SDS011;7840;42.702;23.296;2022-12-07T00:56:10;27.87;;;19.83;;
15476;SDS011;7840;42.702;23.296;2022-12-07T00:58:39;27.17;;;19.40;;
15476;SDS011;7840;42.702;23.296;2022-12-07T01:01:08;28.30;;;20.20;;
15476;SDS011;7840;42.702;23.296;2022-12-07T01:03:36;30.77;;;20.10;;
15476;SDS011;7840;42.702;23.296;2022-12-07T01:26:48;34.17;;;21.43;;
15476;SDS011;7840;42.702;23.296;2022-12-07T01:29:16;35.43;;;21.00;;
15476;SDS011;7840;42.702;23.296;2022-12-07T01:31:48;30.50;;;21.27;;
15476;SDS011;7840;42.702;23.296;2022-12-07T01:34:16;31.87;;;22.20;;
15476;SDS011;7840;42.702;23.296;2022-12-07T01:36:43;31.00;;;22.10;;
15476;SDS011;7840;42.702;23.296;2022-12-07T01:39:11;32.97;;;22.40;;
15476;SDS011;7840;42.702;23.296;2022-12-07T01:41:39;34.00;;;22.47;;
15476;SDS011;7840;42.702;23.296;2022-12-07T01:44:14;36.43;;;23.23;;
15476;SDS011;7840;42.702;23.296;2022-12-07T01:46:47;39.93;;;24.27;;
15476;SDS011;7840;42.702;23.296;2022-12-07T01:49:20;36.03;;;23.03;;
15476;SDS011;7840;42.702;23.296;2022-12-07T01:51:54;35.23;;;23.23;;
15476;SDS011;7840;42.702;23.296;2022-12-07T02:39:31;36.07;;;24.83;;
15476;SDS011;7840;42.702;23.296;2022-12-07T02:42:07;38.60;;;24.17;;
15476;SDS011;7840;42.702;23.296;2022-12-07T02:44:40;32.40;;;22.27;;
15476;SDS011;7840;42.702;23.296;2022-12-07T02:47:26;32.87;;;23.03;;
15476;SDS011;7840;42.702;23.296;2022-12-07T02:49:56;36.10;;;23.97;;
15476;SDS011;7840;42.702;23.296;2022-12-07T02:52:24;36.07;;;25.40;;
15476;SDS011;7840;42.702;23.296;2022-12-07T03:39:30;46.37;;;29.37;;
15476;SDS011;7840;42.702;23.296;2022-12-07T03:42:17;48.80;;;29.20;;
15476;SDS011;7840;42.702;23.296;2022-12-07T03:44:48;48.00;;;30.37;;
15476;SDS011;7840;42.702;23.296;2022-12-07T03:47:19;44.00;;;29.20;;
15476;SDS011;7840;42.702;23.296;2022-12-07T03:50:10;40.40;;;27.73;;
15476;SDS011;7840;42.702;23.296;2022-12-07T03:52:54;39.57;;;26.07;;
15476;SDS011;7840;42.702;23.296;2022-12-07T04:16:46;34.50;;;23.50;;
15476;SDS011;7840;42.702;23.296;2022-12-07T04:19:15;36.60;;;23.47;;
15476;SDS011;7840;42.702;23.296;2022-12-07T04:21:45;32.70;;;23.77;;
15476;SDS011;7840;42.702;23.296;2022-12-07T04:24:16;38.73;;;25.27;;
15476;SDS011;7840;42.702;23.296;2022-12-07T04:26:47;38.27;;;23.50;;
15476;SDS011;7840;42.702;23.296;2022-12-07T04:29:54;40.20;;;24.67;;
15476;SDS011;7840;42.702;23.296;2022-12-07T04:32:45;45.80;;;27.27;;
15476;SDS011;7840;42.702;23.296;2022-12-07T04:35:33;47.47;;;28.50;;
15476;SDS011;7840;42.702;23.296;2022-12-07T04:38:15;50.03;;;29.57;;
15476;SDS011;7840;42.702;23.296;2022-12-07T04:41:02;44.13;;;28.33;;
15476;SDS011;7840;42.702;23.296;2022-12-07T04:59:13;45.60;;;28.83;;
15476;SDS011;7840;42.702;23.296;2022-12-07T05:01:42;42.97;;;28.63;;
15476;SDS011;7840;42.702;23.296;2022-12-07T05:04:15;48.27;;;28.77;;
15476;SDS011;7840;42.702;23.296;2022-12-07T05:06:51;47.17;;;29.17;;
15476;SDS011;7840;42.702;23.296;2022-12-07T05:09:24;43.90;;;27.63;;
15476;SDS011;7840;42.702;23.296;2022-12-07T05:11:54;39.83;;;26.40;;
15476;SDS011;7840;42.702;23.296;2022-12-07T05:14:25;45.10;;;27.07;;
15476;SDS011;7840;42.702;23.296;2022-12-07T05:16:53;44.67;;;26.83;;
15476;SDS011;7840;42.702;23.296;2022-12-07T05:19:34;44.13;;;25.93;;
15476;SDS011;7840;42.702;23.296;2022-12-07T05:22:18;47.53;;;28.63;;
15476;SDS011;7840;42.702;23.296;2022-12-07T05:24:46;49.33;;;28.30;;
15476;SDS011;7840;42.702;23.296;2022-12-07T05:27:18;44.57;;;25.20;;
15476;SDS011;7840;42.702;23.296;2022-12-07T05:29:45;44.43;;;25.87;;
15476;SDS011;7840;42.702;23.296;2022-12-07T05:32:13;41.50;;;26.33;;
15476;SDS011;7840;42.702;23.296;2022-12-07T05:34:41;39.93;;;25.37;;
15476;SDS011;7840;42.702;23.296;2022-12-07T05:37:11;47.53;;;25.40;;
15476;SDS011;7840;42.702;23.296;2022-12-07T05:39:39;38.30;;;25.37;;
15476;SDS011;7840;42.702;23.296;2022-12-07T05:42:10;38.57;;;26.50;;
15476;SDS011;7840;42.702;23.296;2022-12-07T05:44:39;44.77;;;28.57;;
15476;SDS011;7840;42.702;23.296;2022-12-07T05:47:08;52.33;;;28.73;;
15476;SDS011;7840;42.702;23.296;2022-12-07T05:49:36;50.27;;;27.63;;
15476;SDS011;7840;42.702;23.296;2022-12-07T05:52:04;52.23;;;28.87;;
15476;SDS011;7840;42.702;23.296;2022-12-07T05:54:35;43.43;;;27.80;;
15476;SDS011;7840;42.702;23.296;2022-12-07T05:57:08;38.10;;;25.70;;
15476;SDS011;7840;42.702;23.296;2022-12-07T05:59:35;45.30;;;27.73;;
15476;SDS011;7840;42.702;23.296;2022-12-07T06:02:04;46.20;;;28.67;;
15476;SDS011;7840;42.702;23.296;2022-12-07T06:04:35;44.53;;;26.67;;
15476;SDS011;7840;42.702;23.296;2022-12-07T06:07:04;38.17;;;26.53;;
15476;SDS011;7840;42.702;23.296;2022-12-07T06:09:32;38.37;;;26.27;;
15476;SDS011;7840;42.702;23.296;2022-12-07T06:12:00;43.40;;;26.93;;
15476;SDS011;7840;42.702;23.296;2022-12-07T06:14:46;41.07;;;26.20;;
15476;SDS011;7840;42.702;23.296;2022-12-07T06:17:15;47.13;;;27.20;;
15476;SDS011;7840;42.702;23.296;2022-12-07T06:19:43;47.33;;;27.83;;
15476;SDS011;7840;42.702;23.296;2022-12-07T06:22:11;44.93;;;29.00;;
15476;SDS011;7840;42.702;23.296;2022-12-07T06:24:39;43.73;;;28.93;;
15476;SDS011;7840;42.702;23.296;2022-12-07T06:27:07;42.63;;;27.87;;
15476;SDS011;7840;42.702;23.296;2022-12-07T06:29:35;53.10;;;29.90;;
15476;SDS011;7840;42.702;23.296;2022-12-07T06:32:02;47.80;;;29.07;;
15476;SDS011;7840;42.702;23.296;2022-12-07T06:34:34;41.30;;;26.47;;
15476;SDS011;7840;42.702;23.296;2022-12-07T06:37:19;46.23;;;28.07;;
15476;SDS011;7840;42.702;23.296;2022-12-07T06:39:51;44.67;;;29.93;;
15476;SDS011;7840;42.702;23.296;2022-12-07T06:42:33;47.47;;;27.83;;
15476;SDS011;7840;42.702;23.296;2022-12-07T06:45:02;41.13;;;27.70;;
15476;SDS011;7840;42.702;23.296;2022-12-07T06:47:36;43.20;;;29.63;;
15476;SDS011;7840;42.702;23.296;2022-12-07T06:50:19;45.57;;;28.60;;
15476;SDS011;7840;42.702;23.296;2022-12-07T06:52:50;46.47;;;26.83;;
15476;SDS011;7840;42.702;23.296;2022-12-07T06:55:29;50.53;;;30.23;;
15476;SDS011;7840;42.702;23.296;2022-12-07T06:58:01;47.83;;;33.33;;
15476;SDS011;7840;42.702;23.296;2022-12-07T07:00:29;52.20;;;35.60;;
15476;SDS011;7840;42.702;23.296;2022-12-07T07:03:11;57.10;;;36.47;;
15476;SDS011;7840;42.702;23.296;2022-12-07T07:05:40;57.43;;;36.37;;
15476;SDS011;7840;42.702;23.296;2022-12-07T07:08:26;55.50;;;36.37;;
15476;SDS011;7840;42.702;23.296;2022-12-07T07:10:53;60.47;;;36.00;;
15476;SDS011;7840;42.702;23.296;2022-12-07T07:13:35;56.50;;;36.87;;
15476;SDS011;7840;42.702;23.296;2022-12-07T07:16:05;56.73;;;35.33;;
15476;SDS011;7840;42.702;23.296;2022-12-07T07:18:48;53.97;;;34.53;;
15476;SDS011;7840;42.702;23.296;2022-12-07T07:21:19;52.60;;;34.30;;
15476;SDS011;7840;42.702;23.296;2022-12-07T07:23:47;49.83;;;32.53;;
15476;SDS011;7840;42.702;23.296;2022-12-07T07:26:15;53.57;;;32.43;;
15476;SDS011;7840;42.702;23.296;2022-12-07T07:28:55;51.53;;;32.50;;
15476;SDS011;7840;42.702;23.296;2022-12-07T07:31:23;54.57;;;33.80;;
15476;SDS011;7840;42.702;23.296;2022-12-07T07:33:50;47.43;;;31.07;;
15476;SDS011;7840;42.702;23.296;2022-12-07T07:36:22;43.30;;;30.17;;
15476;SDS011;7840;42.702;23.296;2022-12-07T07:38:50;48.90;;;30.03;;
15476;SDS011;7840;42.702;23.296;2022-12-07T07:41:18;48.50;;;29.90;;
15476;SDS011;7840;42.702;23.296;2022-12-07T07:44:00;45.43;;;30.77;;
15476;SDS011;7840;42.702;23.296;2022-12-07T07:46:30;42.87;;;29.93;;
15476;SDS011;7840;42.702;23.296;2022-12-07T07:49:12;40.90;;;29.27;;
15476;SDS011;7840;42.702;23.296;2022-12-07T07:51:44;42.00;;;28.70;;
15476;SDS011;7840;42.702;23.296;2022-12-07T07:54:15;51.30;;;29.20;;
15476;SDS011;7840;42.702;23.296;2022-12-07T07:57:07;44.17;;;28.57;;
15476;SDS011;7840;42.702;23.296;2022-12-07T07:59:35;46.00;;;28.43;;
15476;SDS011;7840;42.702;23.296;2022-12-07T08:02:17;45.47;;;29.60;;
15476;SDS011;7840;42.702;23.296;2022-12-07T08:04:48;42.67;;;30.40;;
15476;SDS011;7840;42.702;23.296;2022-12-07T08:07:18;42.33;;;27.63;;
15476;SDS011;7840;42.702;23.296;2022-12-07T08:09:51;50.37;;;29.73;;
15476;SDS011;7840;42.702;23.296;2022-12-07T08:12:23;51.37;;;30.87;;
15476;SDS011;7840;42.702;23.296;2022-12-07T08:15:01;46.20;;;29.30;;
15476;SDS011;7840;42.702;23.296;2022-12-07T08:17:30;41.47;;;28.73;;
15476;SDS011;7840;42.702;23.296;2022-12-07T08:19:57;46.67;;;30.00;;
15476;SDS011;7840;42.702;23.296;2022-12-07T08:22:26;47.27;;;29.77;;
15476;SDS011;7840;42.702;23.296;2022-12-07T08:24:54;45.70;;;29.30;;
15476;SDS011;7840;42.702;23.296;2022-12-07T08:27:41;46.17;;;28.80;;
15476;SDS011;7840;42.702;23.296;2022-12-07T08:30:09;44.03;;;29.43;;
15476;SDS011;7840;42.702;23.296;2022-12-07T08:32:37;45.07;;;29.70;;
15476;SDS011;7840;42.702;23.296;2022-12-07T08:35:08;48.00;;;30.20;;
15476;SDS011;7840;42.702;23.296;2022-12-07T08:37:37;42.97;;;29.80;;
15476;SDS011;7840;42.702;23.296;2022-12-07T08:40:05;46.40;;;29.93;;
15476;SDS011;7840;42.702;23.296;2022-12-07T08:42:34;42.70;;;29.03;;
15476;SDS011;7840;42.702;23.296;2022-12-07T08:45:05;47.30;;;30.20;;
15476;SDS011;7840;42.702;23.296;2022-12-07T08:47:35;43.33;;;30.27;;
15476;SDS011;7840;42.702;23.296;2022-12-07T08:50:07;42.83;;;29.10;;
15476;SDS011;7840;42.702;23.296;2022-12-07T08:52:37;43.80;;;30.77;;
15476;SDS011;7840;42.702;23.296;2022-12-07T08:55:07;43.17;;;31.07;;
15476;SDS011;7840;42.702;23.296;2022-12-07T08:57:37;42.43;;;31.30;;
15476;SDS011;7840;42.702;23.296;2022-12-07T09:00:06;58.33;;;33.60;;
15476;SDS011;7840;42.702;23.296;2022-12-07T09:02:35;47.07;;;33.40;;
15476;SDS011;7840;42.702;23.296;2022-12-07T09:05:18;50.97;;;33.30;;
15476;SDS011;7840;42.702;23.296;2022-12-07T09:07:47;50.43;;;31.77;;
15476;SDS011;7840;42.702;23.296;2022-12-07T09:10:22;54.80;;;36.23;;
15476;SDS011;7840;42.702;23.296;2022-12-07T09:12:53;56.60;;;36.00;;
15476;SDS011;7840;42.702;23.296;2022-12-07T09:15:38;54.33;;;35.00;;
15476;SDS011;7840;42.702;23.296;2022-12-07T09:18:34;52.97;;;34.67;;
15476;SDS011;7840;42.702;23.296;2022-12-07T09:21:03;54.93;;;35.17;;
15476;SDS011;7840;42.702;23.296;2022-12-07T09:23:34;41.57;;;31.97;;
15476;SDS011;7840;42.702;23.296;2022-12-07T09:26:03;42.80;;;30.50;;
15476;SDS011;7840;42.702;23.296;2022-12-07T09:28:34;49.07;;;32.50;;
15476;SDS011;7840;42.702;23.296;2022-12-07T09:31:16;50.10;;;33.27;;
15476;SDS011;7840;42.702;23.296;2022-12-07T09:33:44;50.60;;;32.00;;
15476;SDS011;7840;42.702;23.296;2022-12-07T09:36:11;51.80;;;33.23;;
15476;SDS011;7840;42.702;23.296;2022-12-07T09:38:51;46.67;;;31.83;;
15476;SDS011;7840;42.702;23.296;2022-12-07T09:41:20;44.83;;;32.83;;
15476;SDS011;7840;42.702;23.296;2022-12-07T09:43:49;48.73;;;32.37;;
15476;SDS011;7840;42.702;23.296;2022-12-07T09:46:19;44.87;;;30.60;;
15476;SDS011;7840;42.702;23.296;2022-12-07T09:48:48;46.97;;;32.20;;
15476;SDS011;7840;42.702;23.296;2022-12-07T09:51:24;45.90;;;31.47;;
15476;SDS011;7840;42.702;23.296;2022-12-07T09:53:54;48.83;;;32.03;;
15476;SDS011;7840;42.702;23.296;2022-12-07T09:56:25;47.37;;;33.40;;
15476;SDS011;7840;42.702;23.296;2022-12-07T09:58:58;47.53;;;31.97;;
15476;SDS011;7840;42.702;23.296;2022-12-07T10:01:27;45.77;;;32.53;;
15476;SDS011;7840;42.702;23.296;2022-12-07T10:03:59;47.30;;;32.57;;
15476;SDS011;7840;42.702;23.296;2022-12-07T10:06:38;47.87;;;30.93;;
15476;SDS011;7840;42.702;23.296;2022-12-07T10:11:58;42.30;;;29.17;;
15476;SDS011;7840;42.702;23.296;2022-12-07T10:17:47;39.47;;;25.93;;
15476;SDS011;7840;42.702;23.296;2022-12-07T10:20:29;39.45;;;24.95;;
15476;SDS011;7840;42.702;23.296;2022-12-07T10:23:01;38.67;;;24.95;;
15476;SDS011;7840;42.702;23.296;2022-12-07T10:25:33;41.97;;;25.80;;
15476;SDS011;7840;42.702;23.296;2022-12-07T10:28:14;35.63;;;26.13;;
15476;SDS011;7840;42.702;23.296;2022-12-07T10:30:48;48.90;;;28.70;;
15476;SDS011;7840;42.702;23.296;2022-12-07T10:33:27;37.70;;;27.30;;
15476;SDS011;7840;42.702;23.296;2022-12-07T10:36:21;40.95;;;22.27;;
15476;SDS011;7840;42.702;23.296;2022-12-07T10:38:58;29.63;;;21.95;;
15476;SDS011;7840;42.702;23.296;2022-12-07T10:41:44;27.67;;;22.67;;
15476;SDS011;7840;42.702;23.296;2022-12-07T10:44:24;32.93;;;23.27;;
15476;SDS011;7840;42.702;23.296;2022-12-07T10:46:57;36.57;;;23.20;;
15476;SDS011;7840;42.702;23.296;2022-12-07T10:49:50;33.03;;;23.60;;
15476;SDS011;7840;42.702;23.296;2022-12-07T10:52:42;31.65;;;23.33;;
15476;SDS011;7840;42.702;23.296;2022-12-07T10:55:23;30.37;;;22.97;;
15476;SDS011;7840;42.702;23.296;2022-12-07T10:58:07;42.23;;;29.70;;
15476;SDS011;7840;42.702;23.296;2022-12-07T11:00:49;43.97;;;27.83;;
15476;SDS011;7840;42.702;23.296;2022-12-07T11:03:46;32.75;;;24.05;;
15476;SDS011;7840;42.702;23.296;2022-12-07T11:06:43;35.27;;;25.67;;
15476;SDS011;7840;42.702;23.296;2022-12-07T11:09:42;34.83;;;24.90;;
15476;SDS011;7840;42.702;23.296;2022-12-07T11:12:44;33.03;;;24.97;;
15476;SDS011;7840;42.702;23.296;2022-12-07T11:15:48;29.52;;;22.98;;
15476;SDS011;7840;42.702;23.296;2022-12-07T11:18:38;42.30;;;25.75;;
15476;SDS011;7840;42.702;23.296;2022-12-07T11:21:17;41.28;;;26.42;;
15476;SDS011;7840;42.702;23.296;2022-12-07T11:23:54;34.20;;;25.20;;
15476;SDS011;7840;42.702;23.296;2022-12-07T11:26:38;37.67;;;23.30;;
15476;SDS011;7840;42.702;23.296;2022-12-07T11:29:18;34.90;;;24.35;;
15476;SDS011;7840;42.702;23.296;2022-12-07T11:32:13;29.75;;;22.67;;
15476;SDS011;7840;42.702;23.296;2022-12-07T11:34:54;35.08;;;22.83;;
15476;SDS011;7840;42.702;23.296;2022-12-07T11:37:34;35.92;;;21.02;;
15476;SDS011;7840;42.702;23.296;2022-12-07T11:40:13;31.60;;;18.73;;
15476;SDS011;7840;42.702;23.296;2022-12-07T11:42:46;24.90;;;16.77;;
15476;SDS011;7840;42.702;23.296;2022-12-07T11:45:20;25.42;;;17.02;;
15476;SDS011;7840;42.702;23.296;2022-12-07T11:47:58;24.52;;;17.83;;
15476;SDS011;7840;42.702;23.296;2022-12-07T11:50:32;26.88;;;18.83;;
15476;SDS011;7840;42.702;23.296;2022-12-07T11:53:05;25.95;;;18.88;;
15476;SDS011;7840;42.702;23.296;2022-12-07T11:55:43;26.05;;;19.58;;
15476;SDS011;7840;42.702;23.296;2022-12-07T11:58:33;31.88;;;18.58;;
15476;SDS011;7840;42.702;23.296;2022-12-07T12:01:22;30.02;;;18.65;;
15476;SDS011;7840;42.702;23.296;2022-12-07T12:04:07;26.30;;;18.17;;
15476;SDS011;7840;42.702;23.296;2022-12-07T12:06:55;24.10;;;16.65;;
15476;SDS011;7840;42.702;23.296;2022-12-07T12:09:40;24.92;;;17.20;;
15476;SDS011;7840;42.702;23.296;2022-12-07T12:12:36;24.40;;;16.67;;
15476;SDS011;7840;42.702;23.296;2022-12-07T12:15:35;23.92;;;18.05;;
15476;SDS011;7840;42.702;23.296;2022-12-07T12:18:28;26.98;;;16.65;;
15476;SDS011;7840;42.702;23.296;2022-12-07T12:21:08;22.55;;;16.65;;
15476;SDS011;7840;42.702;23.296;2022-12-07T12:23:59;25.60;;;16.38;;
15476;SDS011;7840;42.702;23.296;2022-12-07T12:26:32;24.75;;;16.10;;
15476;SDS011;7840;42.702;23.296;2022-12-07T12:29:23;22.65;;;16.50;;
15476;SDS011;7840;42.702;23.296;2022-12-07T12:32:06;28.10;;;17.27;;
15476;SDS011;7840;42.702;23.296;2022-12-07T12:34:40;24.08;;;17.17;;
15476;SDS011;7840;42.702;23.296;2022-12-07T12:37:42;23.85;;;16.17;;
15476;SDS011;7840;42.702;23.296;2022-12-07T12:55:25;21.42;;;12.63;;
15476;SDS011;7840;42.702;23.296;2022-12-07T12:58:31;24.55;;;12.35;;
15476;SDS011;7840;42.702;23.296;2022-12-07T13:04:21;18.25;;;13.15;;
15476;SDS011;7840;42.702;23.296;2022-12-07T13:10:28;21.20;;;12.82;;
15476;SDS011;7840;42.702;23.296;2022-12-07T13:13:29;22.73;;;14.35;;
15476;SDS011;7840;42.702;23.296;2022-12-07T13:25:09;18.35;;;13.82;;
15476;SDS011;7840;42.702;23.296;2022-12-07T13:27:48;17.67;;;13.40;;
15476;SDS011;7840;42.702;23.296;2022-12-07T13:30:47;16.17;;;13.55;;
15476;SDS011;7840;42.702;23.296;2022-12-07T13:33:26;18.58;;;14.18;;
15476;SDS011;7840;42.702;23.296;2022-12-07T13:35:57;17.98;;;13.15;;
15476;SDS011;7840;42.702;23.296;2022-12-07T13:38:30;27.73;;;14.45;;
15476;SDS011;7840;42.702;23.296;2022-12-07T13:41:03;29.67;;;15.27;;
15476;SDS011;7840;42.702;23.296;2022-12-07T13:43:52;19.92;;;14.60;;
15476;SDS011;7840;42.702;23.296;2022-12-07T13:46:26;19.77;;;13.63;;
15476;SDS011;7840;42.702;23.296;2022-12-07T13:49:21;19.75;;;14.43;;
15476;SDS011;7840;42.702;23.296;2022-12-07T13:51:53;22.85;;;14.23;;
15476;SDS011;7840;42.702;23.296;2022-12-07T13:54:33;18.85;;;14.20;;
15476;SDS011;7840;42.702;23.296;2022-12-07T13:57:18;21.08;;;14.65;;
15476;SDS011;7840;42.702;23.296;2022-12-07T13:59:47;19.75;;;14.52;;
15476;SDS011;7840;42.702;23.296;2022-12-07T14:02:19;18.17;;;14.27;;
15476;SDS011;7840;42.702;23.296;2022-12-07T14:04:51;22.80;;;15.15;;
15476;SDS011;7840;42.702;23.296;2022-12-07T14:07:32;24.88;;;15.27;;
15476;SDS011;7840;42.702;23.296;2022-12-07T14:10:03;21.58;;;15.25;;
15476;SDS011;7840;42.702;23.296;2022-12-07T14:12:34;30.90;;;16.83;;
15476;SDS011;7840;42.702;23.296;2022-12-07T14:15:15;45.97;;;17.92;;
15476;SDS011;7840;42.702;23.296;2022-12-07T14:17:51;33.17;;;16.27;;
15476;SDS011;7840;42.702;23.296;2022-12-07T14:20:29;26.10;;;15.63;;
15476;SDS011;7840;42.702;23.296;2022-12-07T14:23:21;23.65;;;15.38;;
15476;SDS011;7840;42.702;23.296;2022-12-07T14:26:11;25.17;;;15.50;;
15476;SDS011;7840;42.702;23.296;2022-12-07T14:28:41;21.45;;;15.50;;
15476;SDS011;7840;42.702;23.296;2022-12-07T14:31:12;25.35;;;17.13;;
15476;SDS011;7840;42.702;23.296;2022-12-07T14:33:41;22.90;;;16.08;;
15476;SDS011;7840;42.702;23.296;2022-12-07T14:36:20;19.88;;;14.57;;
15476;SDS011;7840;42.702;23.296;2022-12-07T14:38:48;21.23;;;14.98;;
15476;SDS011;7840;42.702;23.296;2022-12-07T14:41:19;21.50;;;15.43;;
15476;SDS011;7840;42.702;23.296;2022-12-07T14:44:08;29.58;;;18.27;;
15476;SDS011;7840;42.702;23.296;2022-12-07T14:49:36;31.83;;;17.42;;
15476;SDS011;7840;42.702;23.296;2022-12-07T14:52:04;28.73;;;16.73;;
15476;SDS011;7840;42.702;23.296;2022-12-07T14:54:38;33.17;;;17.92;;
15476;SDS011;7840;42.702;23.296;2022-12-07T14:57:11;26.60;;;17.88;;
15476;SDS011;7840;42.702;23.296;2022-12-07T14:59:39;32.30;;;18.45;;
15476;SDS011;7840;42.702;23.296;2022-12-07T15:02:09;91.17;;;62.97;;
15476;SDS011;7840;42.702;23.296;2022-12-07T15:04:39;34.20;;;20.00;;
15476;SDS011;7840;42.702;23.296;2022-12-07T15:07:10;29.47;;;20.17;;
15476;SDS011;7840;42.702;23.296;2022-12-07T15:09:43;30.03;;;21.80;;
15476;SDS011;7840;42.702;23.296;2022-12-07T15:12:13;37.60;;;20.33;;
15476;SDS011;7840;42.702;23.296;2022-12-07T15:14:49;36.80;;;23.13;;
15476;SDS011;7840;42.702;23.296;2022-12-07T15:17:19;48.37;;;23.97;;
15476;SDS011;7840;42.702;23.296;2022-12-07T15:19:47;45.13;;;25.13;;
15476;SDS011;7840;42.702;23.296;2022-12-07T15:22:15;44.77;;;24.83;;
15476;SDS011;7840;42.702;23.296;2022-12-07T15:24:48;40.47;;;24.03;;
15476;SDS011;7840;42.702;23.296;2022-12-07T15:27:23;41.90;;;27.57;;
15476;SDS011;7840;42.702;23.296;2022-12-07T15:29:51;40.50;;;24.83;;
15476;SDS011;7840;42.702;23.296;2022-12-07T15:32:22;35.80;;;25.40;;
15476;SDS011;7840;42.702;23.296;2022-12-07T15:34:50;38.80;;;21.80;;
15476;SDS011;7840;42.702;23.296;2022-12-07T15:37:17;34.80;;;22.27;;
15476;SDS011;7840;42.702;23.296;2022-12-07T15:39:45;40.90;;;24.57;;
15476;SDS011;7840;42.702;23.296;2022-12-07T15:42:17;45.87;;;26.77;;
15476;SDS011;7840;42.702;23.296;2022-12-07T15:44:46;58.43;;;25.27;;
15476;SDS011;7840;42.702;23.296;2022-12-07T15:47:33;50.40;;;24.93;;
15476;SDS011;7840;42.702;23.296;2022-12-07T15:50:03;46.77;;;26.73;;
15476;SDS011;7840;42.702;23.296;2022-12-07T15:52:49;47.70;;;26.70;;
15476;SDS011;7840;42.702;23.296;2022-12-07T15:55:21;56.40;;;26.40;;
15476;SDS011;7840;42.702;23.296;2022-12-07T15:57:49;78.40;;;47.10;;
15476;SDS011;7840;42.702;23.296;2022-12-07T16:00:17;58.53;;;37.87;;
15476;SDS011;7840;42.702;23.296;2022-12-07T16:02:51;81.13;;;46.77;;
15476;SDS011;7840;42.702;23.296;2022-12-07T16:05:26;74.70;;;45.23;;
15476;SDS011;7840;42.702;23.296;2022-12-07T16:07:54;68.90;;;40.20;;
15476;SDS011;7840;42.702;23.296;2022-12-07T16:10:22;72.53;;;40.87;;
15476;SDS011;7840;42.702;23.296;2022-12-07T16:12:51;79.37;;;39.97;;
15476;SDS011;7840;42.702;23.296;2022-12-07T16:15:37;67.53;;;39.97;;
15476;SDS011;7840;42.702;23.296;2022-12-07T16:18:19;61.83;;;39.07;;
15476;SDS011;7840;42.702;23.296;2022-12-07T16:20:49;59.40;;;37.47;;
15476;SDS011;7840;42.702;23.296;2022-12-07T16:23:17;56.73;;;38.33;;
15476;SDS011;7840;42.702;23.296;2022-12-07T16:25:49;80.90;;;45.10;;
15476;SDS011;7840;42.702;23.296;2022-12-07T16:28:16;79.77;;;43.63;;
15476;SDS011;7840;42.702;23.296;2022-12-07T16:30:44;105.13;;;56.00;;
15476;SDS011;7840;42.702;23.296;2022-12-07T16:33:11;136.03;;;77.93;;
15476;SDS011;7840;42.702;23.296;2022-12-07T16:35:40;96.07;;;62.23;;
15476;SDS011;7840;42.702;23.296;2022-12-07T16:38:09;102.10;;;62.87;;
15476;SDS011;7840;42.702;23.296;2022-12-07T16:40:36;138.43;;;80.23;;
15476;SDS011;7840;42.702;23.296;2022-12-07T16:43:04;155.80;;;110.03;;
15476;SDS011;7840;42.702;23.296;2022-12-07T16:45:31;167.50;;;113.60;;
15476;SDS011;7840;42.702;23.296;2022-12-07T16:47:59;141.73;;;101.33;;
15476;SDS011;7840;42.702;23.296;2022-12-07T16:50:27;148.57;;;109.43;;
15476;SDS011;7840;42.702;23.296;2022-12-07T16:52:56;148.13;;;102.63;;
15476;SDS011;7840;42.702;23.296;2022-12-07T16:55:26;149.00;;;98.70;;
15476;SDS011;7840;42.702;23.296;2022-12-07T16:57:54;139.23;;;94.90;;
15476;SDS011;7840;42.702;23.296;2022-12-07T17:00:22;101.93;;;61.80;;
15476;SDS011;7840;42.702;23.296;2022-12-07T17:02:49;106.27;;;71.00;;
15476;SDS011;7840;42.702;23.296;2022-12-07T17:05:17;64.93;;;47.77;;
15476;SDS011;7840;42.702;23.296;2022-12-07T17:07:44;104.83;;;63.23;;
15476;SDS011;7840;42.702;23.296;2022-12-07T17:10:14;50.63;;;32.53;;
15476;SDS011;7840;42.702;23.296;2022-12-07T17:12:42;65.60;;;35.57;;
15476;SDS011;7840;42.702;23.296;2022-12-07T17:15:21;58.60;;;34.83;;
15476;SDS011;7840;42.702;23.296;2022-12-07T17:18:01;60.47;;;35.43;;
15476;SDS011;7840;42.702;23.296;2022-12-07T17:20:30;53.90;;;31.67;;
15476;SDS011;7840;42.702;23.296;2022-12-07T17:22:58;52.47;;;30.53;;
15476;SDS011;7840;42.702;23.296;2022-12-07T17:25:28;56.07;;;31.80;;
15476;SDS011;7840;42.702;23.296;2022-12-07T17:27:58;58.13;;;30.67;;
15476;SDS011;7840;42.702;23.296;2022-12-07T17:30:25;49.13;;;32.80;;
15476;SDS011;7840;42.702;23.296;2022-12-07T17:32:53;48.33;;;32.03;;
15476;SDS011;7840;42.702;23.296;2022-12-07T17:35:21;54.13;;;33.40;;
15476;SDS011;7840;42.702;23.296;2022-12-07T17:37:49;57.00;;;31.03;;
15476;SDS011;7840;42.702;23.296;2022-12-07T17:40:16;43.93;;;29.30;;
15476;SDS011;7840;42.702;23.296;2022-12-07T17:42:46;46.53;;;29.60;;
15476;SDS011;7840;42.702;23.296;2022-12-07T17:45:16;45.07;;;27.60;;
15476;SDS011;7840;42.702;23.296;2022-12-07T17:47:44;37.43;;;26.03;;
15476;SDS011;7840;42.702;23.296;2022-12-07T17:50:12;38.47;;;24.53;;
15476;SDS011;7840;42.702;23.296;2022-12-07T17:52:39;40.67;;;25.63;;
15476;SDS011;7840;42.702;23.296;2022-12-07T17:55:29;35.73;;;24.93;;
15476;SDS011;7840;42.702;23.296;2022-12-07T17:58:16;38.87;;;25.83;;
15476;SDS011;7840;42.702;23.296;2022-12-07T18:03:26;39.17;;;28.90;;
15476;SDS011;7840;42.702;23.296;2022-12-07T18:05:54;50.03;;;30.30;;
15476;SDS011;7840;42.702;23.296;2022-12-07T18:08:24;47.57;;;30.10;;
15476;SDS011;7840;42.702;23.296;2022-12-07T18:11:06;51.73;;;30.43;;
15476;SDS011;7840;42.702;23.296;2022-12-07T18:13:36;47.60;;;28.70;;
15476;SDS011;7840;42.702;23.296;2022-12-07T18:16:06;47.60;;;30.93;;
15476;SDS011;7840;42.702;23.296;2022-12-07T18:18:42;44.27;;;29.57;;
15476;SDS011;7840;42.702;23.296;2022-12-07T18:21:16;50.97;;;32.60;;
15476;SDS011;7840;42.702;23.296;2022-12-07T18:23:46;50.03;;;31.83;;
15476;SDS011;7840;42.702;23.296;2022-12-07T18:26:25;53.07;;;32.70;;
15476;SDS011;7840;42.702;23.296;2022-12-07T18:39:51;46.83;;;29.47;;